Ackley, IA (50601)

2:08 AM CDT on September 01, 2015 (GMT -0500)
Iowa Falls | | Change Station
CLOSE
Current Station
Personal Weather Station
Location: Iowa Falls, IA
Elevation: 1129 ft
Nearby Weather Stations
Active Advisory: Special Statement

Elev 1129 ft 42.53 °N, 93.26 °W | Updated 21 seconds ago

Clear
Clear
69.3 °F
Feels Like 69.3 °F
N
0.0
Wind Variable Wind from South
Gusts 0.0 mph

Today
High -- | Low -- °F
--% Chance of Precip.
Yesterday
High -- | Low -- °F
Precip. -- in
6:36 AM 7:46 PM
Waning Gibbous, 91% visible
Pressure 29.98 in
Visibility 5.0 miles
Clouds Mostly Cloudy 4800 ft
Overcast 6000 ft
Dew Point 69 °F
Humidity 99%
Rainfall 0.00 in
Snow Depth Not available.
UV 0.0 out of 12
Pollen 10.80 out of 12
Air Quality Not available.
Flu Activity Not available.
METAR KIFA 010655Z AUTO 00000KT 5SM BR BKN048 OVC060 20/20 A2998 RMK AO2 T02030196
Pressure 29.98 in
Visibility 5.0 miles
Clouds Mostly Cloudy 4800 ft
Overcast 6000 ft
Dew Point 69 °F
Humidity 99%
Rainfall 0.00 in
Snow Depth Not available.
UV 0.0 out of 12
Pollen 10.80 out of 12
Air Quality Not available.
Flu Activity Not available.
METAR KIFA 010655Z AUTO 00000KT 5SM BR BKN048 OVC060 20/20 A2998 RMK AO2 T02030196

10-Day Weather Forecast

×

Almanac

Astronomy

Sep. 01, 2015 Rise Set
Actual Time
Civil Twilight
Nautical Twilight
Astronomical Twilight
Moon
Length of Visible Light
Length of Day
Tomorrow will be .
, % of the Moon is Illuminated

Today's Extremes

State Highs State Lows

Community

WunderPhotos

Upload Photos

1,851,488 photos uploaded!

WunderBlogs® & News

Nearby

Air Quality

  Air Quality AQ Index Pollutant
Not available.

Snow Depth

Station Depth Elevation

Earthquake Activity

City Distance Mag. Time & Date
Minimum magnitude displayed is 2.5.

Coastal Water Temperatures

Place Temperature

Stations

Nearby Weather Stations

Station Location Temp. Windchill Dew Point Humidity Wind Precip. Elev Updated Type
                   
Special Statement
Statement as of 1:44 AM CDT on September 01, 2015

... Patchy dense fog forming overnight...

Areas of fog have developed overnight... with patches of dense fog
affecting some areas along the north of the Highway 30 corridor.
Within these pockets of denser fog visibility will be reduced to
less than a quarter of a mile at times. If you are driving please
be alert for these rapid changes in visibility.


Lee

144 am CDT Tue Sep 1 2015

... Patchy dense fog forming overnight...

Areas of fog have developed overnight... with patches of dense fog
affecting some areas along the north of the Highway 30 corridor.
Within these pockets of denser fog visibility will be reduced to
less than a quarter of a mile at times. If you are driving please
be alert for these rapid changes in visibility.


Lee